Highland Heights, Kentucky
Current Conditions -  °F | °C
As of 10:53 PM on Sunday 25 Jan 2015 (Local Time) from KLUK Reporting Station
Light Rain Light Rain  
Wind Chill: 29°   Ceiling: 700
Heat Index: 37°   Visibility: 5mi
Dew Point: 36°   Wind: 13mph
Humidity: 96%   Direction: 10°N
Pressure: 29.71"   Gusts: NA
Location:  39.0316°N, 84.4619°W
Report Text: KLUK 260353Z 01011KT 5SM -RA BR OVC007 03/02 A2971 RMK AO2 SLP063 P0004 T00280022
Loading
Personal Weather Stations






























Interactive Weather Map New forecast layout! Learn more

10-Day Weather Forecast

Advertisements
Track Severe Weather on mobile